Time;durP1;ratioP1;P1;durP2;ratioP2;P2;SDS_P1;SDS_P2;PMS_P1;PMS_P2;Temp;Humidity;BMP_temperature;BMP_pressure;BME280_temperature;BME280_humidity;BME280_pressure;Samples;Min_cycle;Max_cycle;Signal;HPM_P1;HPM_P2
2022/09/13 00:02:13;;;;;;;8.13;6.20;;;20.70;55.00;;;;;;5035434;28;20456;-86
2022/09/13 00:04:40;;;;;;;8.70;7.17;;;20.70;54.60;;;;;;5042557;28;20461;-87
2022/09/13 00:07:07;;;;;;;11.33;7.10;;;20.60;54.00;;;;;;5043709;28;20953;-86
2022/09/13 00:09:34;;;;;;;8.67;7.43;;;20.60;54.20;;;;;;5044526;28;20495;-86
2022/09/13 00:12:02;;;;;;;6.93;6.30;;;20.60;54.50;;;;;;5009975;28;20468;-86
2022/09/13 00:14:29;;;;;;;8.13;6.30;;;20.50;54.60;;;;;;5025358;28;20479;-87
2022/09/13 00:16:56;;;;;;;8.93;6.80;;;20.50;54.40;;;;;;5044495;28;20480;-86
2022/09/13 00:19:23;;;;;;;8.93;6.90;;;20.50;54.50;;;;;;5040452;28;21026;-86
2022/09/13 00:21:50;;;;;;;9.80;6.20;;;20.50;54.40;;;;;;5014549;28;20511;-85
2022/09/13 00:24:17;;;;;;;10.13;7.10;;;20.50;54.70;;;;;;5060122;28;20463;-86
2022/09/13 00:26:44;;;;;;;10.00;7.30;;;20.50;54.70;;;;;;5043095;28;20991;-86
2022/09/13 00:29:13;;;;;;;7.43;6.13;;;20.40;54.60;;;;;;5062197;28;20479;-86
2022/09/13 00:31:40;;;;;;;9.27;7.70;;;20.40;54.80;;;;;;5061984;28;20453;-84
2022/09/13 00:34:07;;;;;;;7.40;6.53;;;20.30;54.80;;;;;;5058764;28;20500;-85
2022/09/13 00:36:34;;;;;;;12.83;7.50;;;20.30;54.90;;;;;;5044197;28;20527;-86
2022/09/13 00:39:00;;;;;;;10.67;7.27;;;20.40;55.00;;;;;;5058799;28;20468;-85
2022/09/13 00:41:27;;;;;;;8.93;6.87;;;20.30;55.20;;;;;;5024079;28;20448;-86
2022/09/13 00:43:56;;;;;;;10.50;7.07;;;20.30;55.20;;;;;;5050659;28;20453;-86
2022/09/13 00:46:33;;;;;;;10.13;7.37;;;20.20;54.60;;;;;;5063700;28;20462;-87
2022/09/13 00:49:05;;;;;;;10.97;7.07;;;20.10;54.90;;;;;;5028134;28;20893;-87
2022/09/13 00:51:32;;;;;;;11.77;7.40;;;20.10;55.00;;;;;;5061956;28;20460;-87
2022/09/13 00:54:00;;;;;;;10.10;6.67;;;20.10;54.90;;;;;;5039398;28;20467;-83
2022/09/13 00:56:32;;;;;;;8.83;5.60;;;20.10;54.80;;;;;;5052756;28;20919;-86
2022/09/13 00:59:01;;;;;;;12.10;6.77;;;20.10;54.50;;;;;;5060167;28;20472;-86
2022/09/13 01:01:35;;;;;;;11.33;8.47;;;20.10;54.40;;;;;;5032751;28;20800;-87
2022/09/13 01:04:03;;;;;;;13.50;7.03;;;20.10;54.60;;;;;;5046981;28;21030;-86
2022/09/13 01:06:33;;;;;;;10.33;7.80;;;20.10;54.50;;;;;;5051143;28;20460;-88
2022/09/13 01:09:03;;;;;;;9.83;7.00;;;20.00;54.40;;;;;;5063602;28;20480;-86
2022/09/13 01:11:37;;;;;;;9.50;7.60;;;19.90;55.10;;;;;;5046520;28;20460;-86
2022/09/13 01:14:06;;;;;;;11.60;7.60;;;19.60;55.80;;;;;;5032669;28;21093;-88
2022/09/13 01:16:34;;;;;;;11.57;7.33;;;19.30;56.90;;;;;;5049779;28;20548;-86
2022/09/13 01:19:02;;;;;;;11.10;8.03;;;19.10;57.50;;;;;;5049319;28;20471;-86
2022/09/13 01:22:03;;;;;;;13.13;7.33;;;19.20;57.20;;;;;;5032608;28;20463;-86
2022/09/13 01:24:55;;;;;;;11.80;7.27;;;19.40;56.50;;;;;;5066748;28;20440;-86
2022/09/13 01:27:53;;;;;;;9.47;7.43;;;19.50;56.20;;;;;;5065184;28;20449;-87
2022/09/13 01:30:22;;;;;;;8.40;6.93;;;19.60;55.60;;;;;;5022500;28;20524;-86
2022/09/13 01:33:21;;;;;;;8.83;6.60;;;19.60;55.30;;;;;;5046625;28;20455;-86
2022/09/13 01:36:01;;;;;;;10.33;6.73;;;19.70;55.30;;;;;;5055974;28;20509;-86
2022/09/13 01:38:50;;;;;;;9.97;7.70;;;19.60;54.60;;;;;;5029446;28;20460;-87
2022/09/13 01:41:32;;;;;;;9.37;7.13;;;19.60;54.90;;;;;;5052819;28;20469;-86
2022/09/13 01:44:07;;;;;;;7.97;6.40;;;19.60;55.00;;;;;;5065203;28;20444;-86
2022/09/13 01:46:42;;;;;;;8.80;6.27;;;19.60;54.90;;;;;;5042226;28;20483;-86
2022/09/13 01:49:19;;;;;;;9.33;6.70;;;19.60;54.60;;;;;;5065056;28;21089;-87
2022/09/13 01:51:52;;;;;;;7.70;6.47;;;19.60;54.60;;;;;;5064994;28;20442;-86
2022/09/13 01:54:25;;;;;;;7.97;6.20;;;19.60;54.90;;;;;;5030227;28;20938;-87
2022/09/13 01:57:00;;;;;;;8.87;6.80;;;19.50;56.00;;;;;;5045388;28;20581;-86
2022/09/13 01:59:37;;;;;;;9.77;6.57;;;19.50;55.10;;;;;;5047975;28;20896;-86
2022/09/13 02:02:08;;;;;;;10.20;7.43;;;19.30;55.70;;;;;;5047827;28;20448;-86
2022/09/13 02:04:40;;;;;;;11.70;7.43;;;19.30;55.90;;;;;;5021636;28;20452;-87
2022/09/13 02:07:13;;;;;;;11.60;7.50;;;19.30;55.90;;;;;;5048202;28;20445;-86
2022/09/13 02:09:43;;;;;;;10.40;7.23;;;19.40;56.00;;;;;;5045930;28;21139;-87
2022/09/13 02:12:16;;;;;;;11.70;7.67;;;19.40;55.90;;;;;;5012048;28;20531;-86
2022/09/13 02:14:45;;;;;;;11.23;7.23;;;19.40;56.20;;;;;;5031947;28;20633;-86
2022/09/13 02:17:17;;;;;;;14.10;8.40;;;19.50;56.30;;;;;;5046839;28;20463;-87
2022/09/13 02:19:48;;;;;;;14.80;8.10;;;19.50;56.30;;;;;;5063378;28;20473;-86
2022/09/13 02:22:20;;;;;;;15.20;8.20;;;19.50;56.50;;;;;;5032613;28;20484;-86
2022/09/13 02:24:51;;;;;;;11.57;9.30;;;19.50;57.20;;;;;;5045528;28;20429;-86
2022/09/13 02:27:24;;;;;;;16.00;9.93;;;19.50;57.40;;;;;;5064702;28;20445;-87
2022/09/13 02:29:57;;;;;;;13.50;8.80;;;19.50;58.00;;;;;;5019689;28;20464;-86
2022/09/13 02:32:30;;;;;;;31.00;10.13;;;19.50;58.90;;;;;;5037399;28;20453;-86
2022/09/13 02:35:01;;;;;;;18.17;10.17;;;19.50;58.20;;;;;;5065533;28;20464;-87
2022/09/13 02:37:31;;;;;;;13.43;9.13;;;19.50;58.30;;;;;;5062791;28;20459;-86
2022/09/13 02:40:02;;;;;;;13.80;9.20;;;19.60;58.30;;;;;;5063738;28;20476;-86
2022/09/13 02:42:35;;;;;;;13.53;9.67;;;19.60;58.20;;;;;;5045624;28;20501;-86
2022/09/13 02:45:03;;;;;;;10.50;7.63;;;19.60;58.10;;;;;;5029229;28;20528;-86
2022/09/13 02:47:42;;;;;;;14.83;9.77;;;19.60;57.70;;;;;;5065068;28;20451;-86
2022/09/13 02:50:36;;;;;;;9.60;7.87;;;19.60;57.70;;;;;;5044434;28;20554;-87
2022/09/13 02:53:12;;;;;;;13.23;9.77;;;19.60;57.80;;;;;;5026881;28;20449;-86
2022/09/13 02:55:49;;;;;;;18.43;9.10;;;19.60;57.90;;;;;;5046616;28;20477;-86
2022/09/13 02:58:22;;;;;;;14.07;8.93;;;19.60;57.90;;;;;;5047482;28;20966;-87
2022/09/13 03:00:49;;;;;;;14.67;8.60;;;19.40;57.90;;;;;;5062042;28;20460;-86
2022/09/13 03:03:17;;;;;;;39.90;9.40;;;19.40;57.90;;;;;;5064536;28;20464;-87
2022/09/13 03:05:44;;;;;;;11.33;7.90;;;19.10;58.20;;;;;;5042355;28;20495;-87
2022/09/13 03:08:14;;;;;;;8.23;6.40;;;19.10;58.50;;;;;;5058952;28;20540;-85
2022/09/13 03:10:54;;;;;;;8.17;6.67;;;19.10;58.00;;;;;;5055137;28;20472;-86
2022/09/13 03:13:39;;;;;;;14.13;7.90;;;19.20;57.80;;;;;;5029206;28;20926;-86
2022/09/13 03:16:19;;;;;;;15.50;6.97;;;19.30;57.60;;;;;;5039400;28;20471;-86
2022/09/13 03:18:59;;;;;;;9.03;6.60;;;19.20;58.00;;;;;;5047335;28;20456;-86
2022/09/13 03:21:47;;;;;;;10.50;7.13;;;19.10;58.30;;;;;;5060808;28;20448;-86
2022/09/13 03:24:23;;;;;;;23.50;9.63;;;19.10;58.30;;;;;;5029179;28;20445;-85
2022/09/13 03:27:02;;;;;;;16.47;10.03;;;18.90;59.10;;;;;;5061377;28;20933;-87
2022/09/13 03:29:39;;;;;;;15.53;10.70;;;18.90;59.30;;;;;;5057216;28;20483;-87
2022/09/13 03:32:18;;;;;;;16.67;10.57;;;19.00;59.30;;;;;;5064418;28;20459;-86
2022/09/13 03:34:53;;;;;;;17.73;10.67;;;19.00;59.20;;;;;;5047904;28;20502;-86
2022/09/13 03:37:27;;;;;;;19.13;11.57;;;19.10;59.10;;;;;;5064108;28;20477;-86
2022/09/13 03:39:59;;;;;;;28.40;12.77;;;19.10;58.80;;;;;;5042262;28;20650;-87
2022/09/13 03:42:34;;;;;;;34.77;10.00;;;19.20;58.90;;;;;;5019176;28;20449;-87
2022/09/13 03:45:03;;;;;;;17.03;10.20;;;19.20;58.80;;;;;;5029406;28;20440;-87
2022/09/13 03:47:35;;;;;;;30.10;12.40;;;19.20;58.80;;;;;;5034993;28;20986;-87
2022/09/13 03:50:04;;;;;;;63.03;12.33;;;19.30;58.60;;;;;;5060648;28;21270;-87
2022/09/13 03:52:32;;;;;;;20.00;12.50;;;19.20;58.70;;;;;;5060209;28;20947;-86
2022/09/13 03:54:59;;;;;;;22.50;11.10;;;19.20;59.00;;;;;;5018685;28;20858;-87
2022/09/13 03:57:26;;;;;;;19.83;10.83;;;19.20;59.00;;;;;;5056288;28;21234;-86
2022/09/13 03:59:54;;;;;;;21.97;12.10;;;19.20;59.50;;;;;;5035652;28;21886;-87
2022/09/13 04:02:22;;;;;;;20.13;11.83;;;19.20;59.00;;;;;;5057902;28;20448;-87
2022/09/13 04:04:50;;;;;;;13.87;9.93;;;19.20;59.10;;;;;;5044399;28;20506;-87
2022/09/13 04:07:20;;;;;;;13.77;8.53;;;19.30;58.70;;;;;;5060792;28;20528;-87
2022/09/13 04:09:47;;;;;;;9.63;8.00;;;19.30;58.20;;;;;;5059491;28;20496;-88
2022/09/13 04:12:15;;;;;;;9.40;6.67;;;19.10;57.90;;;;;;5043715;28;20462;-88
2022/09/13 04:14:43;;;;;;;10.70;6.47;;;19.20;58.30;;;;;;5025209;28;20452;-87
2022/09/13 04:17:11;;;;;;;9.93;7.40;;;19.20;57.50;;;;;;5026275;28;20465;-87
2022/09/13 04:19:38;;;;;;;9.30;7.20;;;19.20;57.50;;;;;;5060259;28;20491;-88
2022/09/13 04:22:05;;;;;;;8.27;6.70;;;19.20;57.30;;;;;;5027715;28;20451;-87
2022/09/13 04:24:35;;;;;;;10.30;7.40;;;19.10;57.30;;;;;;5042710;28;21104;-86
2022/09/13 04:27:02;;;;;;;8.27;6.27;;;18.90;57.80;;;;;;5061287;28;20449;-87
2022/09/13 04:29:30;;;;;;;9.50;6.83;;;18.80;57.90;;;;;;5027950;28;20467;-88
2022/09/13 04:31:57;;;;;;;7.00;6.13;;;18.90;57.70;;;;;;5062921;28;20956;-86
2022/09/13 04:34:24;;;;;;;10.50;7.90;;;19.00;57.60;;;;;;5063926;28;20448;-86
2022/09/13 04:36:53;;;;;;;10.33;7.07;;;18.90;57.10;;;;;;5043534;28;20465;-87
2022/09/13 04:39:20;;;;;;;15.23;7.70;;;18.90;57.50;;;;;;5066030;28;20485;-86
2022/09/13 04:41:50;;;;;;;12.60;7.57;;;18.90;57.30;;;;;;5032307;28;20457;-86
2022/09/13 04:44:19;;;;;;;12.87;7.83;;;18.60;58.00;;;;;;5047690;28;20459;-87
2022/09/13 04:46:47;;;;;;;17.00;8.60;;;18.50;58.20;;;;;;5068049;28;20528;-87
2022/09/13 04:49:15;;;;;;;15.10;9.37;;;18.20;59.20;;;;;;5066605;28;20551;-86
2022/09/13 04:51:41;;;;;;;15.47;8.20;;;18.40;59.20;;;;;;5047542;28;20444;-87
2022/09/13 04:54:10;;;;;;;10.73;8.53;;;18.50;58.80;;;;;;5044360;28;20506;-86
2022/09/13 04:56:37;;;;;;;12.90;9.33;;;18.60;58.60;;;;;;5039366;28;20466;-87
2022/09/13 04:59:05;;;;;;;12.43;9.30;;;18.60;58.60;;;;;;5033556;28;20472;-86
2022/09/13 05:01:33;;;;;;;11.90;8.93;;;18.70;58.70;;;;;;5048196;28;20975;-86
2022/09/13 05:04:00;;;;;;;17.73;10.67;;;18.80;58.60;;;;;;5037626;28;20452;-87
2022/09/13 05:06:27;;;;;;;28.43;11.00;;;18.90;58.80;;;;;;5036958;28;20440;-87
2022/09/13 05:08:55;;;;;;;49.73;11.97;;;18.80;59.20;;;;;;5014272;28;20535;-87
2022/09/13 05:11:23;;;;;;;26.80;11.60;;;18.60;59.90;;;;;;5012571;28;20977;-86
2022/09/13 05:13:53;;;;;;;37.73;12.40;;;18.70;59.80;;;;;;5064936;28;20453;-86
2022/09/13 05:16:22;;;;;;;20.07;11.30;;;18.70;59.90;;;;;;5020040;28;21338;-85
2022/09/13 05:18:50;;;;;;;19.23;11.40;;;18.80;59.70;;;;;;5031645;28;20511;-86
2022/09/13 05:21:18;;;;;;;25.80;11.00;;;18.90;59.50;;;;;;5060906;28;20467;-87
2022/09/13 05:23:48;;;;;;;21.17;11.23;;;19.00;59.20;;;;;;5044149;28;20460;-86
2022/09/13 05:26:15;;;;;;;27.57;12.27;;;18.90;59.30;;;;;;5061820;28;20444;-85
2022/09/13 05:28:42;;;;;;;19.17;10.70;;;19.00;59.40;;;;;;5049505;28;20949;-86
2022/09/13 05:31:14;;;;;;;17.47;11.03;;;19.00;59.20;;;;;;5048276;28;20441;-87
2022/09/13 05:33:43;;;;;;;18.47;11.00;;;19.00;59.20;;;;;;5064022;28;20455;-86
2022/09/13 05:36:10;;;;;;;21.50;11.43;;;19.10;59.30;;;;;;5063548;28;20480;-86
2022/09/13 05:38:37;;;;;;;17.00;10.17;;;19.10;59.20;;;;;;5030506;28;20468;-85
2022/09/13 05:41:05;;;;;;;31.40;10.40;;;19.10;59.10;;;;;;5058217;28;20975;-87
2022/09/13 05:43:33;;;;;;;26.50;12.00;;;19.10;59.10;;;;;;5021586;28;20539;-87
2022/09/13 05:46:02;;;;;;;23.83;12.60;;;19.10;58.90;;;;;;5049193;28;20445;-87
2022/09/13 05:48:29;;;;;;;18.53;10.53;;;19.10;59.20;;;;;;5034060;28;20514;-86
2022/09/13 05:51:04;;;;;;;20.30;10.50;;;19.00;59.30;;;;;;5029392;28;20479;-86
2022/09/13 05:53:31;;;;;;;29.67;11.37;;;19.10;59.20;;;;;;5032674;28;20443;-87
2022/09/13 05:55:58;;;;;;;18.30;10.93;;;19.10;59.30;;;;;;5015467;28;20473;-86
2022/09/13 05:58:26;;;;;;;23.20;11.77;;;19.00;59.40;;;;;;5028533;28;20823;-87
2022/09/13 06:00:54;;;;;;;22.93;11.17;;;19.10;59.40;;;;;;5046287;28;20994;-89
2022/09/13 06:03:21;;;;;;;17.13;10.77;;;19.10;59.30;;;;;;5061581;28;20492;-89
2022/09/13 06:05:48;;;;;;;21.80;11.00;;;19.00;59.80;;;;;;5011107;28;20503;-88
2022/09/13 06:08:16;;;;;;;18.27;10.77;;;18.90;59.80;;;;;;5062270;28;20448;-88
2022/09/13 06:10:43;;;;;;;22.80;11.80;;;19.00;59.70;;;;;;5015853;28;20807;-89
2022/09/13 06:13:10;;;;;;;21.73;10.10;;;19.00;59.70;;;;;;5030519;28;20461;-87
2022/09/13 06:15:37;;;;;;;24.47;12.47;;;19.00;59.70;;;;;;5035169;28;20513;-89
2022/09/13 06:18:04;;;;;;;25.40;11.43;;;19.00;59.80;;;;;;5017071;28;20453;-88
2022/09/13 06:20:31;;;;;;;20.53;12.47;;;19.00;59.80;;;;;;5064444;28;20496;-88
2022/09/13 06:22:58;;;;;;;20.07;11.33;;;19.00;59.80;;;;;;5048444;28;20482;-88
2022/09/13 06:25:26;;;;;;;17.03;10.53;;;19.10;59.70;;;;;;5015167;28;20452;-89
2022/09/13 06:27:53;;;;;;;44.43;12.37;;;19.00;59.60;;;;;;5059277;28;20441;-88
2022/09/13 06:30:20;;;;;;;31.83;10.80;;;19.10;59.50;;;;;;5030414;28;20901;-89
2022/09/13 06:32:47;;;;;;;16.03;9.80;;;19.10;59.30;;;;;;5046706;28;20467;-88
2022/09/13 06:35:15;;;;;;;16.43;10.70;;;19.00;59.80;;;;;;5015015;28;20459;-89
2022/09/13 06:37:42;;;;;;;18.20;10.90;;;19.00;59.60;;;;;;5031383;28;20463;-88
2022/09/13 06:40:10;;;;;;;22.70;14.07;;;18.70;60.40;;;;;;5040618;28;20478;-88
2022/09/13 06:42:38;;;;;;;21.37;12.60;;;18.70;60.60;;;;;;5065253;28;20733;-88
2022/09/13 06:45:06;;;;;;;18.60;11.23;;;18.90;60.50;;;;;;5044677;28;20449;-89
2022/09/13 06:47:33;;;;;;;18.70;11.20;;;19.00;60.00;;;;;;5053958;28;20992;-88
2022/09/13 06:50:00;;;;;;;18.83;10.30;;;19.00;60.00;;;;;;5027560;28;20484;-88
2022/09/13 06:52:27;;;;;;;16.73;10.60;;;18.90;60.10;;;;;;5047778;28;20478;-89
2022/09/13 06:54:54;;;;;;;16.57;10.63;;;18.80;60.40;;;;;;5047430;28;20470;-88
2022/09/13 06:57:21;;;;;;;16.50;9.93;;;18.80;60.50;;;;;;5043410;28;20484;-88
2022/09/13 06:59:49;;;;;;;18.30;11.20;;;18.90;60.40;;;;;;5047676;28;20504;-90
2022/09/13 07:02:16;;;;;;;16.10;11.23;;;19.00;60.10;;;;;;5046966;28;21076;-88
2022/09/13 07:04:44;;;;;;;17.70;10.53;;;18.90;60.00;;;;;;5048406;28;20440;-89
2022/09/13 07:07:11;;;;;;;16.33;10.37;;;18.80;60.50;;;;;;5046974;28;20441;-88
2022/09/13 07:09:38;;;;;;;14.43;10.47;;;18.70;61.00;;;;;;5046798;28;20461;-89
2022/09/13 07:12:06;;;;;;;14.73;10.40;;;18.80;60.90;;;;;;5034066;28;20466;-88
2022/09/13 07:14:33;;;;;;;16.50;11.00;;;19.00;60.50;;;;;;5048309;28;20518;-88
2022/09/13 07:17:01;;;;;;;19.90;10.80;;;19.00;60.40;;;;;;5030695;28;21111;-88
2022/09/13 07:19:30;;;;;;;16.63;11.30;;;18.80;60.50;;;;;;5044492;28;20547;-88
2022/09/13 07:21:57;;;;;;;19.27;11.50;;;18.70;61.10;;;;;;5044880;28;20463;-88
2022/09/13 07:24:26;;;;;;;18.80;10.43;;;18.90;61.30;;;;;;5041914;28;21221;-88
2022/09/13 07:26:53;;;;;;;17.23;10.30;;;18.90;60.70;;;;;;5012553;28;20469;-88
2022/09/13 07:29:22;;;;;;;14.37;10.07;;;18.80;61.00;;;;;;5029438;28;21194;-89
2022/09/13 07:31:51;;;;;;;16.77;10.50;;;18.80;60.80;;;;;;5039424;28;20474;-89
2022/09/13 07:34:20;;;;;;;15.97;9.80;;;18.80;60.70;;;;;;5041262;28;20457;-88
2022/09/13 07:36:48;;;;;;;14.73;9.87;;;19.00;60.70;;;;;;5031745;28;21042;-89
2022/09/13 07:39:17;;;;;;;16.43;9.83;;;19.20;60.50;;;;;;5028782;28;20472;-88
2022/09/13 07:41:45;;;;;;;14.17;10.67;;;19.30;60.40;;;;;;5044896;28;20972;-88
2022/09/13 07:44:13;;;;;;;15.87;10.50;;;19.50;59.90;;;;;;5032047;28;20536;-88
2022/09/13 07:46:42;;;;;;;14.13;10.00;;;19.60;59.50;;;;;;5049248;28;20452;-90
2022/09/13 07:49:10;;;;;;;15.37;9.70;;;19.70;59.10;;;;;;5046579;28;20473;-90
2022/09/13 07:51:40;;;;;;;13.10;10.00;;;19.80;59.00;;;;;;5048123;28;20524;-88
2022/09/13 07:54:11;;;;;;;13.77;9.57;;;19.80;58.70;;;;;;5066373;28;20534;-88
2022/09/13 07:56:40;;;;;;;13.70;9.87;;;19.70;58.90;;;;;;5051690;28;20592;-88
2022/09/13 07:59:11;;;;;;;12.23;8.13;;;19.80;59.00;;;;;;5043414;28;20471;-88
2022/09/13 08:01:39;;;;;;;13.60;8.83;;;19.90;58.80;;;;;;5059902;28;20460;-88
2022/09/13 08:04:08;;;;;;;12.83;9.17;;;20.00;58.50;;;;;;5031153;28;20448;-88
2022/09/13 08:06:36;;;;;;;15.43;9.93;;;20.10;58.80;;;;;;5048364;28;20449;-90
2022/09/13 08:09:07;;;;;;;13.50;9.13;;;20.10;58.70;;;;;;5025053;28;20486;-87
2022/09/13 08:11:36;;;;;;;15.97;10.00;;;20.10;58.20;;;;;;5025305;28;22420;-88
2022/09/13 08:14:04;;;;;;;13.03;9.40;;;20.10;58.50;;;;;;5044292;28;20456;-88
2022/09/13 08:16:32;;;;;;;14.10;10.30;;;20.20;58.30;;;;;;5009711;28;20446;-89
2022/09/13 08:19:01;;;;;;;14.77;9.90;;;20.20;58.20;;;;;;5029509;28;20905;-88
2022/09/13 08:21:33;;;;;;;16.10;10.30;;;20.30;58.30;;;;;;5053016;28;20479;-88
2022/09/13 08:24:00;;;;;;;16.43;9.80;;;20.30;58.30;;;;;;5043080;28;20440;-89
2022/09/13 08:26:29;;;;;;;13.90;9.20;;;20.40;58.30;;;;;;5064671;28;20448;-89
2022/09/13 08:28:58;;;;;;;12.63;9.63;;;20.50;58.50;;;;;;5029662;28;21015;-87
2022/09/13 08:31:25;;;;;;;17.60;10.87;;;20.50;58.70;;;;;;5061590;28;20461;-89
2022/09/13 08:33:53;;;;;;;12.67;9.90;;;20.30;59.00;;;;;;5047025;28;20700;-88
2022/09/13 08:36:22;;;;;;;15.00;8.90;;;20.20;60.10;;;;;;5044061;28;20452;-87
2022/09/13 08:38:51;;;;;;;15.60;10.80;;;20.30;60.20;;;;;;5062844;28;20506;-88
2022/09/13 08:41:47;;;;;;;13.60;9.23;;;20.50;60.10;;;;;;5026372;28;20823;-89
2022/09/13 08:44:25;;;;;;;12.07;9.37;;;20.70;59.90;;;;;;5027526;28;20817;-88
2022/09/13 08:46:55;;;;;;;13.07;8.63;;;20.80;60.00;;;;;;5062116;28;21242;-88
2022/09/13 08:49:28;;;;;;;15.27;10.23;;;20.90;60.10;;;;;;5031151;28;20933;-89
2022/09/13 08:51:59;;;;;;;16.23;10.87;;;21.00;60.00;;;;;;5045591;28;20433;-88
2022/09/13 08:54:27;;;;;;;9.37;8.23;;;20.90;59.90;;;;;;5026494;28;20803;-89
2022/09/13 08:57:02;;;;;;;14.43;10.17;;;21.00;59.90;;;;;;5014738;28;21120;-89
2022/09/13 08:59:45;;;;;;;19.10;11.10;;;20.80;59.70;;;;;;5005599;28;20810;-90
2022/09/13 09:02:26;;;;;;;16.90;10.67;;;20.90;59.50;;;;;;5027613;28;20548;-88
2022/09/13 09:05:02;;;;;;;16.77;9.50;;;21.00;59.20;;;;;;5026922;28;20494;-88
2022/09/13 09:07:33;;;;;;;15.30;10.30;;;21.00;59.60;;;;;;5027660;28;20448;-89
2022/09/13 09:10:03;;;;;;;16.30;9.90;;;21.00;59.80;;;;;;5002583;28;20469;-89
2022/09/13 09:12:39;;;;;;;14.10;9.47;;;21.00;59.30;;;;;;5024448;28;20476;-88
2022/09/13 09:15:14;;;;;;;39.07;11.83;;;20.80;60.20;;;;;;5045135;28;20488;-88
2022/09/13 09:17:49;;;;;;;14.63;9.77;;;20.90;59.60;;;;;;5061835;28;20469;-88
2022/09/13 09:20:25;;;;;;;11.73;10.20;;;20.90;59.70;;;;;;5044717;28;20476;-87
2022/09/13 09:22:54;;;;;;;15.70;10.07;;;20.90;59.70;;;;;;5066827;28;20448;-88
2022/09/13 09:25:23;;;;;;;15.17;11.50;;;20.90;59.70;;;;;;5038239;28;20847;-88
2022/09/13 09:27:52;;;;;;;15.50;9.50;;;21.00;59.90;;;;;;5062794;28;20497;-88
2022/09/13 09:30:19;;;;;;;13.30;10.27;;;21.20;59.70;;;;;;5028318;28;20449;-89
2022/09/13 09:32:54;;;;;;;10.37;9.00;;;21.40;59.40;;;;;;5048095;28;20449;-88
2022/09/13 09:35:37;;;;;;;14.70;10.23;;;21.60;58.80;;;;;;5047474;28;21453;-89
2022/09/13 09:38:19;;;;;;;12.63;9.63;;;21.70;58.20;;;;;;5024161;28;20463;-88
2022/09/13 09:40:46;;;;;;;12.33;8.80;;;21.80;57.80;;;;;;5050236;28;20580;-88
2022/09/13 09:43:20;;;;;;;15.53;9.17;;;21.80;57.90;;;;;;5021899;28;20452;-88
2022/09/13 09:45:48;;;;;;;14.60;9.60;;;21.70;57.60;;;;;;5035236;28;20469;-88
2022/09/13 09:48:20;;;;;;;11.00;7.80;;;21.70;57.70;;;;;;5048609;28;20443;-87
2022/09/13 09:50:50;;;;;;;12.30;9.40;;;21.70;57.80;;;;;;5033658;28;20461;-89
2022/09/13 09:53:25;;;;;;;11.60;8.07;;;21.60;57.90;;;;;;5035976;28;20548;-88
2022/09/13 09:55:58;;;;;;;10.23;8.80;;;21.70;57.70;;;;;;5051170;28;20461;-88
2022/09/13 09:58:39;;;;;;;12.63;10.13;;;21.70;57.80;;;;;;5043571;28;20460;-88
2022/09/13 10:01:14;;;;;;;10.80;8.40;;;21.80;57.60;;;;;;5031034;28;20519;-87
2022/09/13 10:03:41;;;;;;;10.63;8.23;;;22.10;57.90;;;;;;5065306;28;20857;-88
2022/09/13 10:06:11;;;;;;;12.70;9.23;;;22.20;56.60;;;;;;5048795;28;20456;-89
2022/09/13 10:08:41;;;;;;;10.90;9.07;;;22.20;56.40;;;;;;5061390;28;20456;-87
2022/09/13 10:11:09;;;;;;;12.07;8.10;;;22.30;56.50;;;;;;5047080;28;20452;-87
2022/09/13 10:13:37;;;;;;;11.60;8.40;;;22.40;56.40;;;;;;5048413;28;20456;-88
2022/09/13 10:16:06;;;;;;;9.87;8.50;;;22.40;56.50;;;;;;5047009;28;20445;-89
2022/09/13 10:18:35;;;;;;;14.43;9.50;;;22.50;57.00;;;;;;5032384;28;20470;-88
2022/09/13 10:21:05;;;;;;;16.60;8.37;;;22.50;57.40;;;;;;5032385;28;20465;-88
2022/09/13 10:23:33;;;;;;;12.30;8.90;;;22.50;57.50;;;;;;5033051;28;20506;-89
2022/09/13 10:26:08;;;;;;;11.63;9.30;;;22.50;57.70;;;;;;5041068;28;20449;-90
2022/09/13 10:28:44;;;;;;;15.53;8.80;;;22.40;57.90;;;;;;5037675;28;20455;-89
2022/09/13 10:31:13;;;;;;;11.37;9.40;;;22.50;58.20;;;;;;5037971;28;20982;-89
2022/09/13 10:33:43;;;;;;;18.80;9.47;;;22.50;58.30;;;;;;5033946;28;20455;-88
2022/09/13 10:36:15;;;;;;;12.97;8.87;;;22.50;58.50;;;;;;5030894;28;21310;-89
2022/09/13 10:38:51;;;;;;;10.67;8.60;;;22.40;58.60;;;;;;5046306;28;20723;-89
2022/09/13 10:41:23;;;;;;;12.63;9.20;;;22.40;58.90;;;;;;5047731;28;20460;-89
2022/09/13 10:43:57;;;;;;;13.90;9.33;;;22.50;59.10;;;;;;5051502;28;20453;-88
2022/09/13 10:46:25;;;;;;;15.57;11.07;;;22.50;58.90;;;;;;5048475;28;21234;-89
2022/09/13 10:48:54;;;;;;;12.50;9.13;;;22.50;59.00;;;;;;5032881;28;21060;-89
2022/09/13 10:51:33;;;;;;;13.47;9.60;;;22.50;59.00;;;;;;5065740;28;21212;-89
2022/09/13 10:54:18;;;;;;;11.80;9.40;;;22.40;58.40;;;;;;5029705;28;20446;-89
2022/09/13 10:56:45;;;;;;;10.53;8.03;;;22.40;58.40;;;;;;5019551;28;20449;-89
2022/09/13 10:59:32;;;;;;;11.00;8.70;;;22.40;58.80;;;;;;5045402;28;20848;-88
2022/09/13 11:02:23;;;;;;;16.23;10.87;;;22.40;58.80;;;;;;5046947;28;20453;-88
2022/09/13 11:05:06;;;;;;;12.50;9.00;;;22.60;59.10;;;;;;5018601;28;21008;-89
2022/09/13 11:07:47;;;;;;;13.60;10.70;;;22.60;58.90;;;;;;5031485;28;20802;-88
2022/09/13 11:10:20;;;;;;;14.03;8.90;;;22.70;58.90;;;;;;5064344;28;20481;-88
2022/09/13 11:12:55;;;;;;;14.43;9.60;;;22.70;58.50;;;;;;5048051;28;20450;-89
2022/09/13 11:15:34;;;;;;;14.13;9.80;;;22.80;58.70;;;;;;5051219;28;20492;-89
2022/09/13 11:18:27;;;;;;;12.00;9.13;;;22.90;59.00;;;;;;5065204;28;21038;-88
2022/09/13 11:21:04;;;;;;;13.73;10.00;;;23.00;59.10;;;;;;5030312;28;20488;-91
2022/09/13 11:23:50;;;;;;;13.80;9.93;;;22.70;58.00;;;;;;5039439;28;20464;-89
2022/09/13 11:26:35;;;;;;;12.60;9.40;;;22.50;59.40;;;;;;5046537;28;20444;-89
2022/09/13 11:29:13;;;;;;;12.73;9.20;;;22.40;59.60;;;;;;5041818;28;20473;-89
2022/09/13 11:31:52;;;;;;;12.63;9.50;;;22.50;59.60;;;;;;5054724;28;20470;-89
2022/09/13 11:34:34;;;;;;;13.93;9.80;;;22.60;59.60;;;;;;5015452;28;20826;-88
2022/09/13 11:37:20;;;;;;;14.23;8.90;;;22.70;59.50;;;;;;5033418;28;20979;-89
2022/09/13 11:39:58;;;;;;;12.83;9.50;;;22.80;59.50;;;;;;5032215;28;20473;-90
2022/09/13 11:42:39;;;;;;;11.70;9.67;;;22.80;59.70;;;;;;5028340;28;20441;-89
2022/09/13 11:45:19;;;;;;;13.00;8.53;;;22.70;59.80;;;;;;5042847;28;20836;-89
2022/09/13 11:48:01;;;;;;;12.57;9.70;;;22.70;60.50;;;;;;5021655;28;20459;-89
2022/09/13 11:50:46;;;;;;;13.80;9.90;;;22.70;60.50;;;;;;5061471;28;20836;-87
2022/09/13 11:53:55;;;;;;;12.30;9.70;;;22.90;60.60;;;;;;5064741;28;20453;-90
2022/09/13 11:56:27;;;;;;;15.17;10.63;;;23.00;60.30;;;;;;4934816;28;20459;-89
2022/09/13 11:58:59;;;;;;;15.33;10.10;;;23.20;60.20;;;;;;4949681;28;20480;-89
2022/09/13 12:01:29;;;;;;;10.50;9.40;;;23.30;60.10;;;;;;5008830;28;20459;-90
2022/09/13 12:04:02;;;;;;;13.30;9.63;;;23.40;59.70;;;;;;5047511;28;20479;-88
2022/09/13 12:06:33;;;;;;;14.00;9.20;;;23.40;60.30;;;;;;5047499;28;21207;-89
2022/09/13 12:09:05;;;;;;;14.27;9.53;;;23.50;60.60;;;;;;5044359;28;20460;-90
2022/09/13 12:11:35;;;;;;;11.90;9.97;;;23.30;60.20;;;;;;5047122;28;20469;-89
2022/09/13 12:14:05;;;;;;;15.33;10.23;;;23.30;60.80;;;;;;5047780;28;20899;-89
2022/09/13 12:16:35;;;;;;;15.10;9.87;;;23.30;60.70;;;;;;5053594;28;20495;-88
2022/09/13 12:19:07;;;;;;;25.20;9.73;;;23.50;60.50;;;;;;5034770;28;20507;-88
2022/09/13 12:21:38;;;;;;;14.30;9.97;;;23.50;61.10;;;;;;5049833;28;20518;-89
2022/09/13 12:24:12;;;;;;;14.27;9.60;;;23.70;60.90;;;;;;5046595;28;20440;-89
2022/09/13 12:26:43;;;;;;;13.67;10.13;;;23.70;60.10;;;;;;5048345;28;20432;-89
2022/09/13 12:29:15;;;;;;;11.80;9.47;;;23.70;60.10;;;;;;5031299;28;20472;-87
2022/09/13 12:31:42;;;;;;;13.20;8.60;;;23.80;60.40;;;;;;5063382;28;20448;-88
2022/09/13 12:34:17;;;;;;;13.77;8.93;;;23.80;60.20;;;;;;5043943;28;20453;-90
2022/09/13 12:37:06;;;;;;;12.70;8.87;;;23.90;60.00;;;;;;5042839;28;20448;-89
2022/09/13 12:40:09;;;;;;;11.53;8.47;;;23.90;59.90;;;;;;5025775;28;20491;-88
2022/09/13 12:42:52;;;;;;;9.03;8.00;;;23.80;60.00;;;;;;5027874;28;20440;-88
2022/09/13 12:45:34;;;;;;;11.93;7.40;;;23.60;59.00;;;;;;5045423;28;20449;-89
2022/09/13 12:48:24;;;;;;;9.60;7.90;;;23.70;59.40;;;;;;5050073;28;20455;-88
2022/09/13 12:51:05;;;;;;;9.80;8.07;;;23.90;59.80;;;;;;5051893;28;21008;-89
2022/09/13 12:54:01;;;;;;;11.67;8.80;;;24.00;59.60;;;;;;5041791;28;20452;-89
2022/09/13 12:56:50;;;;;;;9.50;8.07;;;23.90;59.70;;;;;;5066668;28;20932;-89
2022/09/13 12:59:34;;;;;;;12.53;9.03;;;23.90;60.00;;;;;;5067218;28;20476;-88
2022/09/13 13:02:04;;;;;;;11.13;8.57;;;23.90;60.50;;;;;;5068692;28;20474;-89